Time;durP1;ratioP1;P1;durP2;ratioP2;P2;SDS_P1;SDS_P2;PMS_P1;PMS_P2;Temp;Humidity;BMP_temperature;BMP_pressure;BME280_temperature;BME280_humidity;BME280_pressure;Samples;Min_cycle;Max_cycle;Signal;HPM_P1;HPM_P2
2021/04/14 00:02:06;;;;;;;2.10;1.38;;;22.60;25.00;;;;;;5081110;28;20424;-56
2021/04/14 00:04:32;;;;;;;1.80;1.27;;;22.60;25.00;;;;;;5081145;28;20435;-52
2021/04/14 00:07:03;;;;;;;1.95;1.33;;;22.60;25.50;;;;;;5083788;28;20043;-57
2021/04/14 00:09:30;;;;;;;2.20;1.38;;;22.60;25.10;;;;;;5079772;28;20042;-56
2021/04/14 00:11:57;;;;;;;1.67;1.20;;;22.60;25.10;;;;;;5082978;28;20039;-51
2021/04/14 00:14:25;;;;;;;1.67;1.30;;;22.60;25.20;;;;;;5080787;28;20408;-46
2021/04/14 00:16:51;;;;;;;1.20;1.00;;;22.60;25.20;;;;;;5084745;28;20019;-56
2021/04/14 00:19:17;;;;;;;2.05;1.35;;;22.50;25.10;;;;;;5082287;28;20523;-53
2021/04/14 00:21:44;;;;;;;1.50;1.17;;;22.60;25.20;;;;;;5082938;28;20062;-53
2021/04/14 00:24:12;;;;;;;1.50;1.13;;;22.50;25.10;;;;;;5076580;28;20500;-49
2021/04/14 00:26:38;;;;;;;1.88;1.20;;;22.50;25.20;;;;;;5083122;28;20056;-52
2021/04/14 00:29:04;;;;;;;2.15;1.27;;;22.50;25.20;;;;;;5078684;28;20089;-47
2021/04/14 00:31:37;;;;;;;2.38;1.20;;;22.50;25.30;;;;;;5078111;28;20051;-49
2021/04/14 00:34:22;;;;;;;1.38;0.90;;;22.50;25.30;;;;;;5081038;28;20017;-53
2021/04/14 00:36:48;;;;;;;2.10;1.20;;;22.50;25.30;;;;;;5081240;28;20036;-52
2021/04/14 00:39:20;;;;;;;1.88;1.02;;;22.50;25.30;;;;;;5081077;28;20057;-56
2021/04/14 00:41:48;;;;;;;1.65;1.10;;;22.50;25.30;;;;;;5082869;28;20016;-53
2021/04/14 00:44:14;;;;;;;2.00;1.20;;;22.50;25.40;;;;;;5081762;28;20504;-48
2021/04/14 00:46:40;;;;;;;1.33;1.08;;;22.50;25.90;;;;;;5080865;28;20173;-49
2021/04/14 00:49:06;;;;;;;1.50;1.05;;;22.40;25.30;;;;;;5080108;28;20037;-53
2021/04/14 00:51:33;;;;;;;1.55;1.00;;;22.40;25.30;;;;;;5080253;28;20040;-52
2021/04/14 00:54:01;;;;;;;1.40;0.88;;;22.40;25.30;;;;;;5064019;28;20035;-51
2021/04/14 00:56:27;;;;;;;0.82;0.80;;;22.40;25.30;;;;;;5080001;28;20174;-54
2021/04/14 00:58:53;;;;;;;1.67;1.10;;;22.40;25.30;;;;;;5080285;28;20111;-52
2021/04/14 01:01:18;;;;;;;1.02;0.70;;;22.40;25.30;;;;;;5077483;28;20393;-50
2021/04/14 01:03:44;;;;;;;1.50;1.00;;;22.40;25.30;;;;;;5077761;28;20370;-56
2021/04/14 01:06:17;;;;;;;1.58;0.82;;;22.40;25.30;;;;;;5085175;28;20404;-52
2021/04/14 01:08:43;;;;;;;1.17;0.90;;;22.40;25.30;;;;;;5081187;28;20040;-51
2021/04/14 01:11:11;;;;;;;1.40;0.88;;;22.40;25.30;;;;;;5084639;28;20343;-51
2021/04/14 01:13:37;;;;;;;1.13;0.82;;;22.40;25.40;;;;;;5083394;28;20682;-51
2021/04/14 01:16:04;;;;;;;2.00;0.77;;;22.40;25.40;;;;;;5084913;28;20025;-59
2021/04/14 01:18:32;;;;;;;2.33;1.00;;;22.30;25.30;;;;;;5086425;28;20429;-49
2021/04/14 01:20:59;;;;;;;1.23;0.77;;;22.30;25.40;;;;;;5088101;28;20085;-53
2021/04/14 01:23:27;;;;;;;1.38;0.68;;;22.30;25.40;;;;;;5062374;28;20035;-54
2021/04/14 01:25:53;;;;;;;1.08;0.73;;;22.30;25.40;;;;;;5085466;28;20439;-52
2021/04/14 01:28:23;;;;;;;2.50;0.95;;;22.30;25.40;;;;;;5086554;28;20497;-53
2021/04/14 01:30:52;;;;;;;1.50;0.95;;;22.30;25.40;;;;;;5086991;28;20060;-53
2021/04/14 01:33:21;;;;;;;1.58;0.77;;;22.30;25.40;;;;;;5084438;28;20029;-49
2021/04/14 01:35:46;;;;;;;1.05;0.70;;;22.30;25.50;;;;;;5084357;28;20024;-51
2021/04/14 01:38:12;;;;;;;1.95;0.68;;;22.30;25.50;;;;;;5084288;28;20346;-51
2021/04/14 01:40:38;;;;;;;1.30;0.88;;;22.30;25.50;;;;;;5083719;28;20074;-56
2021/04/14 01:43:05;;;;;;;1.13;0.70;;;22.30;25.50;;;;;;5086712;28;20086;-53
2021/04/14 01:45:36;;;;;;;1.27;0.70;;;22.30;25.50;;;;;;5083572;28;20031;-57
2021/04/14 01:48:02;;;;;;;1.13;0.70;;;22.30;25.50;;;;;;5085934;28;20347;-48
2021/04/14 01:50:29;;;;;;;1.02;0.82;;;22.20;25.50;;;;;;5083015;28;20090;-52
2021/04/14 01:52:55;;;;;;;1.27;0.85;;;22.20;25.50;;;;;;5084546;28;20036;-54
2021/04/14 01:55:22;;;;;;;1.05;0.73;;;22.20;25.50;;;;;;5084756;28;20051;-53
2021/04/14 01:57:48;;;;;;;1.23;0.85;;;22.20;25.50;;;;;;5083741;28;20392;-56
2021/04/14 02:00:23;;;;;;;2.03;0.70;;;22.20;25.50;;;;;;5086673;28;20458;-51
2021/04/14 02:02:49;;;;;;;1.23;0.60;;;22.20;25.50;;;;;;5086296;28;20466;-53
2021/04/14 02:05:17;;;;;;;1.00;0.68;;;22.20;25.50;;;;;;5083825;28;20457;-55
2021/04/14 02:07:43;;;;;;;1.38;1.00;;;22.20;25.50;;;;;;5085580;28;20063;-53
2021/04/14 02:10:12;;;;;;;1.42;0.70;;;22.20;25.50;;;;;;5085776;28;20051;-56
2021/04/14 02:12:38;;;;;;;1.38;0.70;;;22.20;25.50;;;;;;5067805;28;20036;-48
2021/04/14 02:15:12;;;;;;;1.92;1.00;;;22.20;25.50;;;;;;5083955;28;20486;-49
2021/04/14 02:17:37;;;;;;;0.98;0.65;;;22.10;25.50;;;;;;5064504;28;20024;-54
2021/04/14 02:20:06;;;;;;;1.17;0.73;;;22.10;25.50;;;;;;5082454;28;20032;-51
2021/04/14 02:22:31;;;;;;;1.33;0.80;;;22.10;25.50;;;;;;5081585;28;20028;-53
2021/04/14 02:24:57;;;;;;;1.35;0.60;;;22.10;25.50;;;;;;5083463;28;20465;-53
2021/04/14 02:27:23;;;;;;;0.73;0.60;;;22.10;26.00;;;;;;5084104;28;20064;-52
2021/04/14 02:29:49;;;;;;;1.23;0.60;;;22.10;25.50;;;;;;5084846;28;20055;-53
2021/04/14 02:32:15;;;;;;;0.85;0.60;;;22.10;25.50;;;;;;5082724;28;20063;-50
2021/04/14 02:34:41;;;;;;;0.93;0.70;;;22.10;25.50;;;;;;5083977;28;20028;-58
2021/04/14 02:37:07;;;;;;;1.02;0.70;;;22.10;25.50;;;;;;5080684;28;20120;-54
2021/04/14 02:39:33;;;;;;;1.35;0.60;;;22.10;25.50;;;;;;5084534;28;20073;-50
2021/04/14 02:41:58;;;;;;;1.38;0.90;;;22.10;25.50;;;;;;5068127;28;20028;-53
2021/04/14 02:44:26;;;;;;;1.00;0.68;;;22.10;25.50;;;;;;5085887;28;20103;-52
2021/04/14 02:46:52;;;;;;;0.82;0.65;;;22.10;25.50;;;;;;5083041;28;20046;-51
2021/04/14 02:49:18;;;;;;;0.60;0.52;;;22.10;26.00;;;;;;5068731;28;20028;-49
2021/04/14 02:51:44;;;;;;;0.88;0.60;;;22.00;25.50;;;;;;5081927;28;20043;-49
2021/04/14 02:54:10;;;;;;;0.90;0.60;;;22.00;25.50;;;;;;5082792;28;20060;-50
2021/04/14 02:56:36;;;;;;;1.10;0.60;;;22.10;25.60;;;;;;5085716;28;20028;-50
2021/04/14 02:59:02;;;;;;;0.98;0.70;;;22.00;25.60;;;;;;5077918;28;20340;-48
2021/04/14 03:01:28;;;;;;;1.13;0.52;;;22.00;25.60;;;;;;5085887;28;20024;-49
2021/04/14 03:03:54;;;;;;;1.10;0.50;;;22.00;25.60;;;;;;5081942;28;20070;-53
2021/04/14 03:06:20;;;;;;;1.55;0.90;;;22.00;26.10;;;;;;5081153;28;20028;-53
2021/04/14 03:08:46;;;;;;;1.20;0.65;;;22.00;25.60;;;;;;5082649;28;20085;-49
2021/04/14 03:11:12;;;;;;;1.00;0.65;;;22.00;25.60;;;;;;5082870;28;20032;-51
2021/04/14 03:13:38;;;;;;;1.00;0.65;;;22.00;25.60;;;;;;5065158;28;20032;-56
2021/04/14 03:16:05;;;;;;;0.90;0.70;;;22.00;25.60;;;;;;5085607;28;20463;-51
2021/04/14 03:18:30;;;;;;;1.70;0.80;;;22.00;25.60;;;;;;5081307;28;20032;-54
2021/04/14 03:20:56;;;;;;;0.75;0.70;;;22.00;25.60;;;;;;5084298;28;20031;-50
2021/04/14 03:23:22;;;;;;;0.80;0.45;;;21.90;25.60;;;;;;5082672;28;20028;-54
2021/04/14 03:25:48;;;;;;;1.30;0.70;;;22.00;25.60;;;;;;5082217;28;20078;-48
2021/04/14 03:28:14;;;;;;;0.93;0.70;;;22.00;25.60;;;;;;5084440;28;20117;-52
2021/04/14 03:30:41;;;;;;;0.90;0.60;;;22.00;25.60;;;;;;5082386;28;20046;-53
2021/04/14 03:33:07;;;;;;;0.93;0.63;;;21.90;25.60;;;;;;5081851;28;20032;-54
2021/04/14 03:35:33;;;;;;;1.67;0.60;;;21.90;25.60;;;;;;5085834;28;20020;-52
2021/04/14 03:38:00;;;;;;;0.45;0.43;;;21.90;25.60;;;;;;5089460;28;20042;-51
2021/04/14 03:40:26;;;;;;;1.23;0.57;;;21.90;25.70;;;;;;5069038;28;20086;-57
2021/04/14 03:42:53;;;;;;;1.10;0.70;;;21.90;25.60;;;;;;5062170;28;20051;-56
2021/04/14 03:45:26;;;;;;;1.20;0.50;;;21.90;25.70;;;;;;5082193;28;20055;-51
2021/04/14 03:47:52;;;;;;;0.98;0.70;;;21.90;25.60;;;;;;5074616;28;20436;-54
2021/04/14 03:50:19;;;;;;;1.23;0.70;;;21.90;25.70;;;;;;5086338;28;20055;-51
2021/04/14 03:52:47;;;;;;;1.38;0.63;;;21.90;25.70;;;;;;5086955;28;20032;-52
2021/04/14 03:55:14;;;;;;;1.40;0.63;;;21.90;25.70;;;;;;5077874;28;20038;-51
2021/04/14 03:57:40;;;;;;;1.33;0.77;;;21.90;25.70;;;;;;5092600;28;20053;-48
2021/04/14 04:00:08;;;;;;;0.80;0.60;;;21.80;25.60;;;;;;5079803;28;20035;-58
2021/04/14 04:02:41;;;;;;;1.05;0.60;;;21.90;25.70;;;;;;5091750;28;20028;-50
2021/04/14 04:05:08;;;;;;;0.88;0.68;;;21.80;25.70;;;;;;5065745;28;20114;-50
2021/04/14 04:07:34;;;;;;;1.35;0.68;;;21.80;25.70;;;;;;5076406;28;20451;-49
2021/04/14 04:10:01;;;;;;;1.70;0.73;;;21.80;25.70;;;;;;5062994;28;20071;-52
2021/04/14 04:12:26;;;;;;;0.50;0.50;;;21.90;25.70;;;;;;5083814;28;20035;-52
2021/04/14 04:14:52;;;;;;;0.95;0.60;;;21.80;25.70;;;;;;5079262;28;20331;-56
2021/04/14 04:17:20;;;;;;;0.77;0.60;;;21.80;25.70;;;;;;5085805;28;20032;-55
2021/04/14 04:19:47;;;;;;;1.00;0.60;;;21.80;25.70;;;;;;5077718;28;20035;-50
2021/04/14 04:22:17;;;;;;;0.82;0.50;;;21.80;25.70;;;;;;5086941;28;20036;-55
2021/04/14 04:24:43;;;;;;;0.73;0.52;;;21.80;25.70;;;;;;5074473;28;20043;-53
2021/04/14 04:27:08;;;;;;;1.27;0.52;;;21.80;25.70;;;;;;5078260;28;20024;-49
2021/04/14 04:29:34;;;;;;;1.23;0.70;;;21.80;25.70;;;;;;5087003;28;20475;-51
2021/04/14 04:32:00;;;;;;;1.23;0.60;;;21.80;25.70;;;;;;5085461;28;20075;-56
2021/04/14 04:34:26;;;;;;;1.00;0.77;;;21.80;25.70;;;;;;5092229;28;20035;-55
2021/04/14 04:36:52;;;;;;;0.80;0.47;;;21.80;25.70;;;;;;5081912;28;20496;-53
2021/04/14 04:39:19;;;;;;;0.55;0.43;;;21.80;25.70;;;;;;5072550;28;20040;-54
2021/04/14 04:41:45;;;;;;;0.70;0.50;;;21.80;25.70;;;;;;5083360;28;20028;-52
2021/04/14 04:44:11;;;;;;;0.80;0.60;;;21.80;25.70;;;;;;5090693;28;20036;-51
2021/04/14 04:46:37;;;;;;;0.73;0.52;;;21.70;25.70;;;;;;5079046;28;20127;-54
2021/04/14 04:49:03;;;;;;;0.70;0.50;;;21.70;25.70;;;;;;5075579;28;20039;-55
2021/04/14 04:51:30;;;;;;;2.10;0.70;;;21.70;25.70;;;;;;5073047;28;20048;-50
2021/04/14 04:53:56;;;;;;;0.73;0.57;;;21.70;25.80;;;;;;5087482;28;20040;-51
2021/04/14 04:56:23;;;;;;;0.52;0.40;;;21.70;25.80;;;;;;5081073;28;20031;-53
2021/04/14 04:58:48;;;;;;;0.63;0.50;;;21.70;25.80;;;;;;5074066;28;20028;-51
2021/04/14 05:01:15;;;;;;;0.57;0.50;;;21.70;25.80;;;;;;5078570;28;20035;-56
2021/04/14 05:03:41;;;;;;;0.90;0.50;;;21.70;25.80;;;;;;5085066;28;20355;-50
2021/04/14 05:06:07;;;;;;;1.10;0.60;;;21.70;25.90;;;;;;5074316;28;20040;-50
2021/04/14 05:08:32;;;;;;;1.00;0.65;;;21.70;25.80;;;;;;5070284;28;20025;-55
2021/04/14 05:10:58;;;;;;;0.93;0.60;;;21.70;25.90;;;;;;5069237;28;20445;-50
2021/04/14 05:13:24;;;;;;;0.65;0.40;;;21.70;25.90;;;;;;5075660;28;20020;-51
2021/04/14 05:15:50;;;;;;;0.50;0.50;;;21.70;25.90;;;;;;5079877;28;20050;-51
2021/04/14 05:18:17;;;;;;;3.00;0.70;;;21.70;25.90;;;;;;5058885;28;20032;-51
2021/04/14 05:20:44;;;;;;;1.17;0.60;;;21.70;25.90;;;;;;5078111;28;20039;-55
2021/04/14 05:23:11;;;;;;;0.95;0.60;;;21.70;25.90;;;;;;5093910;28;20039;-54
2021/04/14 05:25:40;;;;;;;0.85;0.65;;;21.70;25.90;;;;;;5088163;28;20572;-57
2021/04/14 05:28:10;;;;;;;1.33;0.73;;;21.70;25.80;;;;;;5073802;28;20029;-54
2021/04/14 05:30:36;;;;;;;1.15;0.70;;;21.70;25.80;;;;;;5074170;28;20041;-51
2021/04/14 05:33:04;;;;;;;0.75;0.60;;;21.70;25.80;;;;;;5077279;28;20044;-47
2021/04/14 05:35:29;;;;;;;1.13;0.60;;;21.60;25.80;;;;;;5077131;28;20123;-50
2021/04/14 05:37:55;;;;;;;1.77;0.70;;;21.70;25.90;;;;;;5073798;28;20118;-52
2021/04/14 05:40:24;;;;;;;1.30;0.60;;;21.60;25.80;;;;;;5035687;28;20060;-55
2021/04/14 05:42:51;;;;;;;1.23;0.70;;;21.60;25.80;;;;;;5065939;28;20084;-55
2021/04/14 05:45:22;;;;;;;2.67;0.57;;;21.60;25.80;;;;;;5080610;28;20025;-50
2021/04/14 05:47:48;;;;;;;1.13;0.60;;;21.60;25.80;;;;;;5057079;28;20526;-54
2021/04/14 05:50:17;;;;;;;1.15;0.68;;;21.60;25.80;;;;;;5076844;28;20123;-48
2021/04/14 05:52:43;;;;;;;0.73;0.60;;;21.60;25.80;;;;;;5065710;28;20037;-52
2021/04/14 05:55:10;;;;;;;0.88;0.57;;;21.60;25.80;;;;;;5088474;28;20127;-54
2021/04/14 05:57:36;;;;;;;1.45;0.60;;;21.60;25.80;;;;;;5077273;28;20426;-54
2021/04/14 06:00:09;;;;;;;0.90;0.73;;;21.60;25.90;;;;;;5075818;28;20056;-50
2021/04/14 06:02:36;;;;;;;1.05;0.80;;;21.60;25.90;;;;;;5090743;28;20157;-53
2021/04/14 06:05:03;;;;;;;1.13;0.70;;;21.60;25.90;;;;;;5065078;28;20089;-56
2021/04/14 06:07:29;;;;;;;1.25;0.70;;;21.60;25.90;;;;;;5088966;28;20035;-53
2021/04/14 06:09:54;;;;;;;1.52;1.00;;;21.60;25.90;;;;;;5088889;28;20143;-53
2021/04/14 06:12:20;;;;;;;1.00;0.90;;;21.60;25.90;;;;;;5059603;28;20078;-52
2021/04/14 06:14:46;;;;;;;1.40;0.80;;;21.60;25.90;;;;;;5069274;28;20203;-48
2021/04/14 06:17:12;;;;;;;0.68;0.68;;;21.60;25.90;;;;;;5091418;28;20036;-58
2021/04/14 06:19:38;;;;;;;1.60;0.77;;;21.60;25.90;;;;;;5080984;28;20226;-49
2021/04/14 06:22:05;;;;;;;1.15;0.70;;;21.60;26.00;;;;;;5088850;28;20035;-55
2021/04/14 06:24:31;;;;;;;1.20;0.65;;;21.60;26.00;;;;;;5071916;28;20119;-53
2021/04/14 06:27:00;;;;;;;1.35;0.60;;;21.60;26.10;;;;;;5075437;28;20093;-50
2021/04/14 06:29:26;;;;;;;3.03;0.70;;;21.60;26.20;;;;;;5076316;28;20037;-51
2021/04/14 06:31:52;;;;;;;0.90;0.60;;;21.70;26.40;;;;;;5067701;28;20433;-49
2021/04/14 06:34:21;;;;;;;1.35;0.68;;;21.80;26.40;;;;;;5067382;28;20107;-53
2021/04/14 06:36:49;;;;;;;2.08;0.55;;;21.90;26.50;;;;;;5073002;28;20025;-48
2021/04/14 06:39:18;;;;;;;2.55;0.70;;;22.00;26.50;;;;;;5040607;28;20090;-53
2021/04/14 06:42:28;;;;;;;1.23;0.60;;;22.10;26.60;;;;;;5070010;28;20025;-53
2021/04/14 06:45:07;;;;;;;0.80;0.50;;;22.30;26.60;;;;;;5048543;28;20050;-47
2021/04/14 06:47:52;;;;;;;1.17;0.47;;;22.40;26.60;;;;;;5075480;28;20160;-54
2021/04/14 06:50:24;;;;;;;;;;;22.50;26.50;;;;;;5076291;28;20472;-53
2021/04/14 06:53:01;;;;;;;1.20;0.57;;;22.60;26.50;;;;;;5047357;28;19924;-52
2021/04/14 06:55:32;;;;;;;0.93;0.52;;;22.70;26.40;;;;;;5072434;28;20089;-54
2021/04/14 06:58:05;;;;;;;1.33;0.60;;;22.80;26.40;;;;;;5061528;28;20042;-51
2021/04/14 07:00:41;;;;;;;1.02;0.50;;;22.90;26.40;;;;;;5071787;28;20025;-56
2021/04/14 07:03:14;;;;;;;0.50;0.38;;;23.00;26.30;;;;;;5038365;28;20053;-50
2021/04/14 07:05:47;;;;;;;1.15;0.60;;;23.00;26.30;;;;;;5059410;28;20135;-52
2021/04/14 07:08:39;;;;;;;0.90;0.57;;;23.10;26.30;;;;;;5064892;28;20052;-52
2021/04/14 07:11:10;;;;;;;0.95;0.70;;;23.20;26.30;;;;;;5044895;28;20079;-55
2021/04/14 07:13:37;;;;;;;1.05;0.60;;;23.20;26.30;;;;;;5057639;28;20037;-55
2021/04/14 07:16:25;;;;;;;0.50;0.45;;;23.30;26.40;;;;;;5056268;28;20037;-48
2021/04/14 07:19:03;;;;;;;0.93;0.60;;;23.30;26.40;;;;;;5058284;28;20452;-51
2021/04/14 07:21:40;;;;;;;0.68;0.50;;;23.40;26.30;;;;;;5058446;28;20051;-51
2021/04/14 07:24:29;;;;;;;0.57;0.50;;;23.40;26.30;;;;;;5057213;28;20028;-50
2021/04/14 07:27:11;;;;;;;0.80;0.60;;;23.40;26.20;;;;;;5038175;28;20333;-49
2021/04/14 07:29:50;;;;;;;0.60;0.40;;;23.50;26.10;;;;;;5054736;28;20059;-52
2021/04/14 07:32:46;;;;;;;0.35;0.30;;;23.50;26.00;;;;;;5057853;28;20112;-47
2021/04/14 07:35:22;;;;;;;1.10;0.45;;;23.50;25.90;;;;;;5059233;28;20032;-54
2021/04/14 07:38:19;;;;;;;0.90;0.50;;;23.50;25.80;;;;;;5061313;28;20048;-51
2021/04/14 07:41:32;;;;;;;0.70;0.38;;;23.50;25.70;;;;;;5062402;28;20032;-54
2021/04/14 07:44:06;;;;;;;0.38;0.38;;;23.50;25.60;;;;;;4962338;28;20070;-51
2021/04/14 07:46:40;;;;;;;1.42;0.70;;;23.50;25.60;;;;;;5070860;28;20087;-56
2021/04/14 07:49:08;;;;;;;1.40;0.68;;;23.50;25.50;;;;;;5077972;28;20032;-50
2021/04/14 07:51:34;;;;;;;1.15;0.60;;;23.50;25.50;;;;;;5057824;28;20150;-59
2021/04/14 07:54:13;;;;;;;1.13;0.50;;;23.50;25.40;;;;;;5061465;28;20045;-48
2021/04/14 07:56:56;;;;;;;1.20;0.45;;;23.50;25.40;;;;;;5068744;28;20503;-54
2021/04/14 07:59:34;;;;;;;1.77;0.80;;;23.50;25.30;;;;;;5070433;28;20468;-53
2021/04/14 08:02:08;;;;;;;0.93;0.47;;;23.50;25.30;;;;;;5072835;28;20101;-52
2021/04/14 08:04:44;;;;;;;0.60;0.50;;;23.50;25.30;;;;;;5069167;28;20031;-48
2021/04/14 08:07:13;;;;;;;0.80;0.55;;;23.50;25.30;;;;;;5068219;28;20028;-49
2021/04/14 08:09:59;;;;;;;0.60;0.60;;;23.50;25.30;;;;;;5074669;28;20035;-47
2021/04/14 08:12:34;;;;;;;1.65;0.80;;;23.50;25.20;;;;;;5046042;28;20120;-50
2021/04/14 08:15:16;;;;;;;0.95;0.68;;;23.50;25.20;;;;;;5054375;28;20158;-50
2021/04/14 08:17:43;;;;;;;1.42;0.77;;;23.50;25.20;;;;;;5038098;28;20463;-51
2021/04/14 08:20:25;;;;;;;1.77;0.95;;;23.50;25.30;;;;;;5054954;28;20099;-50
2021/04/14 08:22:51;;;;;;;2.30;1.15;;;23.50;25.20;;;;;;5068904;28;20039;-52
2021/04/14 08:25:30;;;;;;;1.35;0.98;;;23.50;25.20;;;;;;5086221;28;20093;-47
2021/04/14 08:27:57;;;;;;;1.42;1.10;;;23.50;25.20;;;;;;5077987;28;20115;-52
2021/04/14 08:30:24;;;;;;;1.83;1.23;;;23.50;25.20;;;;;;5056739;28;20036;-49
2021/04/14 08:32:53;;;;;;;2.15;1.17;;;23.50;25.30;;;;;;5062799;28;20024;-53
2021/04/14 08:35:39;;;;;;;2.85;1.30;;;23.50;25.30;;;;;;5074533;28;20028;-49
2021/04/14 08:38:14;;;;;;;2.65;1.40;;;23.50;25.30;;;;;;5092097;28;20036;-50
2021/04/14 08:40:53;;;;;;;2.03;1.45;;;23.40;25.30;;;;;;5054388;28;20475;-53
2021/04/14 08:43:38;;;;;;;2.95;1.92;;;23.50;25.40;;;;;;5057923;28;20033;-54
2021/04/14 08:46:24;;;;;;;3.05;2.15;;;23.50;25.40;;;;;;5078265;28;20083;-54
2021/04/14 08:49:17;;;;;;;3.17;2.00;;;23.40;25.90;;;;;;5092609;28;20031;-48
2021/04/14 08:51:48;;;;;;;3.58;2.22;;;23.40;25.40;;;;;;5089323;28;20051;-53
2021/04/14 08:54:21;;;;;;;3.63;2.50;;;23.40;25.40;;;;;;5074482;28;20043;-49
2021/04/14 08:56:49;;;;;;;5.10;2.83;;;23.40;25.40;;;;;;5094461;28;20115;-49
2021/04/14 08:59:15;;;;;;;4.13;3.20;;;23.40;25.40;;;;;;5085864;28;20119;-48
2021/04/14 09:01:41;;;;;;;4.72;3.25;;;23.40;25.50;;;;;;5083653;28;20111;-55
2021/04/14 09:04:12;;;;;;;4.07;2.97;;;23.40;25.50;;;;;;5077655;28;20471;-54
2021/04/14 09:06:40;;;;;;;3.92;2.97;;;23.40;25.40;;;;;;5092063;28;20024;-46
2021/04/14 09:09:10;;;;;;;4.47;3.17;;;23.40;25.40;;;;;;5056226;28;20028;-50
2021/04/14 09:11:37;;;;;;;5.15;3.53;;;23.40;25.40;;;;;;5073729;28;20037;-52
2021/04/14 09:14:29;;;;;;;5.68;3.85;;;23.40;25.50;;;;;;5057157;28;20020;-54
2021/04/14 09:17:04;;;;;;;5.97;3.90;;;23.40;25.50;;;;;;5051152;28;20033;-49
2021/04/14 09:19:33;;;;;;;6.35;4.13;;;23.30;25.50;;;;;;5072133;28;20047;-51
2021/04/14 09:21:58;;;;;;;6.00;4.22;;;23.30;25.50;;;;;;5065618;28;20071;-52
2021/04/14 09:24:42;;;;;;;5.95;4.60;;;23.30;25.50;;;;;;5075497;28;20028;-51
2021/04/14 09:27:33;;;;;;;6.07;4.53;;;23.30;25.50;;;;;;5094800;28;20134;-50
2021/04/14 09:30:11;;;;;;;6.65;4.68;;;23.30;25.50;;;;;;5051404;28;20032;-51
2021/04/14 09:32:46;;;;;;;7.55;5.22;;;23.30;25.50;;;;;;5097673;28;20027;-48
2021/04/14 09:35:22;;;;;;;7.07;4.82;;;23.20;25.50;;;;;;5068042;28;20041;-53
2021/04/14 09:37:48;;;;;;;7.93;5.72;;;23.30;25.50;;;;;;5070704;28;20036;-51
2021/04/14 09:40:27;;;;;;;8.20;5.85;;;23.30;25.50;;;;;;5091367;28;20059;-52
2021/04/14 09:42:53;;;;;;;8.55;6.25;;;23.20;25.50;;;;;;5072310;28;20032;-53
2021/04/14 09:45:28;;;;;;;8.45;6.35;;;23.20;25.50;;;;;;5076805;28;20592;-52
2021/04/14 09:47:55;;;;;;;8.73;6.90;;;23.30;25.50;;;;;;5076977;28;20035;-50
2021/04/14 09:50:31;;;;;;;8.23;5.90;;;23.20;25.50;;;;;;5060590;28;20049;-49
2021/04/14 09:53:07;;;;;;;11.00;6.50;;;23.20;25.50;;;;;;5097036;28;20452;-49
2021/04/14 09:55:57;;;;;;;9.15;6.57;;;23.30;25.50;;;;;;5079592;28;20119;-48
2021/04/14 09:58:28;;;;;;;8.10;6.22;;;23.20;25.50;;;;;;5083670;28;20038;-52
2021/04/14 10:01:17;;;;;;;8.75;6.47;;;23.20;26.00;;;;;;5077328;28;20090;-54
2021/04/14 10:03:45;;;;;;;8.57;6.28;;;23.20;25.50;;;;;;5044826;28;20094;-47
2021/04/14 10:06:14;;;;;;;8.93;6.75;;;23.20;25.50;;;;;;5094213;28;20074;-46
2021/04/14 10:08:43;;;;;;;8.43;6.75;;;23.20;25.50;;;;;;5080839;28;20337;-40
2021/04/14 10:11:42;;;;;;;5.72;4.20;;;23.20;25.50;;;;;;5080260;28;20123;-50
2021/04/14 10:14:20;;;;;;;6.70;4.22;;;23.20;25.40;;;;;;5073277;28;20067;-54
2021/04/14 10:16:48;;;;;;;5.28;3.40;;;23.10;25.40;;;;;;5082706;28;20032;-53
2021/04/14 10:19:26;;;;;;;7.20;4.88;;;23.00;25.40;;;;;;5083604;28;20449;-50
2021/04/14 10:21:52;;;;;;;13.15;6.15;;;23.00;25.50;;;;;;5088534;28;20032;-50
2021/04/14 10:24:19;;;;;;;9.50;6.93;;;23.00;25.50;;;;;;5081538;28;20367;-55
2021/04/14 10:26:56;;;;;;;8.98;7.13;;;23.00;25.60;;;;;;5081260;28;20424;-50
2021/04/14 10:29:34;;;;;;;11.32;8.75;;;23.00;25.70;;;;;;5083195;28;20035;-49
2021/04/14 10:32:00;;;;;;;10.82;8.32;;;23.00;25.90;;;;;;5083099;28;20147;-48
2021/04/14 10:34:33;;;;;;;14.23;11.35;;;23.00;25.90;;;;;;5082862;28;20467;-47
2021/04/14 10:37:13;;;;;;;15.87;12.13;;;23.00;26.10;;;;;;5079437;28;20078;-51
2021/04/14 10:39:39;;;;;;;19.33;14.10;;;23.10;26.30;;;;;;5081107;28;20364;-50
2021/04/14 10:42:18;;;;;;;19.58;15.52;;;23.10;26.50;;;;;;5082726;28;20336;-53
2021/04/14 10:44:45;;;;;;;20.60;16.30;;;23.10;26.80;;;;;;5083185;28;20046;-51
2021/04/14 10:47:19;;;;;;;23.60;19.00;;;23.20;26.90;;;;;;5082948;28;20134;-55
2021/04/14 10:49:45;;;;;;;25.35;18.90;;;23.20;27.50;;;;;;5066877;28;20121;-48
2021/04/14 10:52:24;;;;;;;26.65;21.33;;;23.20;27.70;;;;;;5072270;28;20193;-51
2021/04/14 10:54:54;;;;;;;28.38;21.88;;;23.20;27.40;;;;;;5082366;28;20358;-49
2021/04/14 10:57:29;;;;;;;27.70;21.23;;;23.20;27.40;;;;;;5081468;28;20020;-47
2021/04/14 11:00:07;;;;;;;29.50;22.35;;;23.30;27.50;;;;;;5080700;28;20054;-55
2021/04/14 11:02:36;;;;;;;28.02;21.17;;;23.30;27.70;;;;;;5079278;28;20028;-57
2021/04/14 11:05:03;;;;;;;28.13;22.55;;;23.30;27.80;;;;;;5081665;28;20028;-52
2021/04/14 11:07:32;;;;;;;29.05;22.40;;;23.30;27.90;;;;;;5075907;28;20028;-59
2021/04/14 11:10:04;;;;;;;29.00;23.17;;;23.40;28.00;;;;;;5068788;28;20031;-51
2021/04/14 11:12:31;;;;;;;31.23;23.42;;;23.40;28.10;;;;;;5082676;28;20046;-56
2021/04/14 11:15:08;;;;;;;29.75;23.77;;;23.40;28.10;;;;;;5081584;28;20020;-58
2021/04/14 11:17:43;;;;;;;;;;;23.40;28.10;;;;;;5079904;28;20029;-60
2021/04/14 11:20:13;;;;;;;28.38;21.73;;;23.40;28.10;;;;;;5086180;28;19956;-57
2021/04/14 11:22:41;;;;;;;32.83;24.05;;;23.50;28.20;;;;;;5066799;28;20340;-53
2021/04/14 11:25:07;;;;;;;34.97;25.98;;;23.50;28.30;;;;;;5082395;28;20025;-58
2021/04/14 11:27:34;;;;;;;32.03;24.38;;;23.50;28.30;;;;;;5062193;28;20024;-55
2021/04/14 11:30:09;;;;;;;34.20;26.88;;;23.50;28.30;;;;;;5083026;28;20028;-53
2021/04/14 11:32:36;;;;;;;33.72;25.08;;;23.60;28.30;;;;;;5082854;28;20351;-51
2021/04/14 11:35:07;;;;;;;37.60;28.60;;;23.60;28.40;;;;;;5083097;28;20039;-55
2021/04/14 11:37:47;;;;;;;33.72;26.23;;;23.60;28.40;;;;;;5084160;28;20452;-55
2021/04/14 11:40:20;;;;;;;34.20;26.10;;;23.60;28.30;;;;;;5063442;28;20033;-58
2021/04/14 11:42:52;;;;;;;33.15;25.83;;;23.70;28.40;;;;;;5080935;28;20032;-58
2021/04/14 11:45:34;;;;;;;31.73;24.38;;;23.70;28.30;;;;;;5085622;28;20032;-59
2021/04/14 11:48:14;;;;;;;27.73;21.15;;;23.70;28.20;;;;;;5052340;28;20084;-61
2021/04/14 11:50:43;;;;;;;26.95;19.90;;;23.70;28.10;;;;;;5080307;28;20421;-53
2021/04/14 11:53:28;;;;;;;22.50;17.55;;;23.60;28.00;;;;;;5078380;28;20052;-53
2021/04/14 11:55:56;;;;;;;19.60;15.85;;;23.60;27.80;;;;;;5082019;28;20035;-53
2021/04/14 11:58:45;;;;;;;20.70;16.10;;;23.60;27.80;;;;;;5082436;28;20357;-51
2021/04/14 12:01:29;;;;;;;24.90;17.00;;;23.60;27.60;;;;;;5084953;28;20035;-49
2021/04/14 12:03:56;;;;;;;;;;;23.60;27.60;;;;;;5083825;28;20420;-55
2021/04/14 12:06:22;;;;;;;24.02;18.23;;;23.60;27.60;;;;;;5085979;28;19954;-52
2021/04/14 12:08:49;;;;;;;27.67;21.33;;;23.60;27.70;;;;;;5080778;28;20115;-54
2021/04/14 12:11:24;;;;;;;28.50;22.70;;;23.60;27.70;;;;;;5057408;28;20127;-56
2021/04/14 12:13:51;;;;;;;29.50;22.00;;;23.60;27.70;;;;;;5071068;28;20024;-55
2021/04/14 12:16:17;;;;;;;31.13;23.38;;;23.60;27.70;;;;;;5080251;28;20051;-51
2021/04/14 12:18:46;;;;;;;32.50;25.33;;;23.60;27.70;;;;;;5081341;28;20028;-50
2021/04/14 12:21:13;;;;;;;32.00;24.63;;;23.70;27.80;;;;;;5043709;28;20111;-52
2021/04/14 12:23:39;;;;;;;32.53;25.65;;;23.70;27.90;;;;;;5063059;28;20024;-56
2021/04/14 12:26:06;;;;;;;33.92;27.23;;;23.70;27.90;;;;;;5089362;28;20115;-57
2021/04/14 12:28:32;;;;;;;35.70;27.23;;;23.70;27.90;;;;;;5075983;28;20016;-53
2021/04/14 12:30:58;;;;;;;39.42;28.67;;;23.70;28.00;;;;;;5074433;28;20041;-55
2021/04/14 12:33:26;;;;;;;37.90;27.17;;;23.70;28.00;;;;;;5067651;28;20341;-54
2021/04/14 12:35:52;;;;;;;33.13;24.65;;;23.70;27.90;;;;;;5057419;28;20413;-51
2021/04/14 12:38:19;;;;;;;27.05;21.10;;;23.70;27.80;;;;;;5077385;28;20027;-56
2021/04/14 12:40:45;;;;;;;24.90;19.30;;;23.70;27.70;;;;;;5061111;28;20032;-53
2021/04/14 12:43:11;;;;;;;23.27;18.27;;;23.70;27.50;;;;;;5078910;28;20024;-50
2021/04/14 12:45:46;;;;;;;24.10;18.45;;;23.60;27.30;;;;;;5063649;28;20040;-55
2021/04/14 12:48:27;;;;;;;18.55;14.43;;;23.60;27.20;;;;;;5079850;28;20028;-59
2021/04/14 12:51:16;;;;;;;18.88;14.30;;;23.60;27.20;;;;;;5055519;28;20154;-55
2021/04/14 12:53:52;;;;;;;18.40;13.63;;;23.60;27.10;;;;;;5080337;28;20111;-54
2021/04/14 12:56:41;;;;;;;16.38;12.55;;;23.60;27.00;;;;;;5081797;28;20028;-55
2021/04/14 12:59:13;;;;;;;15.98;12.40;;;23.50;26.80;;;;;;5079656;28;20035;-58
2021/04/14 13:01:40;;;;;;;19.48;14.15;;;23.50;26.80;;;;;;5078696;28;20033;-55